Terminal Aerodrome Forecast
Issued by NWS

Home | Current Version | Previous Version | Graphics & Text | Print | Product List | Glossary On
Versions: 1 2 3 4 5 6 7 8 9 10 11 12 13 14 15 16 17 18 19
000
FTUS43 KGRB 252300
TAFAUW
TAF
KAUW 252320Z 2600/2624 16004KT P6SM BKN100 OVC150
     FM260400 VRB03KT 6SM BR SCT017 OVC150
     FM260800 08003KT 4SM BR SCT008 OVC012
     FM261100 07004KT 3SM BR OVC008=

USA.gov is the U.S. government's official web portal to all federal, state and local government web resources and services.